AAL2404 KSAN-KPHX
Flight info
| Callsign | AAL2404 |
|---|---|
| Flight time | 0h 55m |
| Altitude | 35000 |
| Route | ZZOOO4 HOGGZ HYDRR1 |
| Aircraft | A20N/M-SDE2E3FGHIRWXY/LB1 |
Departure
| Time | 2026-05-04 17:46 |
|---|---|
| Airport | San Diego International Airport (KSAN) |
Arrival
| Time | 2026-05-04 18:41 |
|---|---|
| Airport | Phoenix Sky Harbor International Airport (KPHX) |
| Time | Latitude | Longitude | Altitude | Speed | Heading |
|---|---|---|---|---|---|
| 2026-05-04 16:15 | 32.73390 | -117.20461 | 27 ft | 0 kts | 87° |
| 2026-05-04 16:50 | 32.73389 | -117.20486 | 27 ft | 4 kts | 83° |
| 2026-05-04 16:50 | 32.73379 | -117.20533 | 26 ft | 4 kts | 63° |
| 2026-05-04 16:51 | 32.73354 | -117.20558 | 27 ft | 1 kts | 358° |
| 2026-05-04 16:51 | 32.73352 | -117.20557 | 27 ft | 0 kts | 358° |
| 2026-05-04 16:53 | 32.73390 | -117.20461 | 27 ft | 0 kts | 87° |
| 2026-05-04 17:30 | 32.73389 | -117.20478 | 27 ft | 4 kts | 84° |
| 2026-05-04 17:31 | 32.73379 | -117.20535 | 26 ft | 4 kts | 61° |
| 2026-05-04 17:31 | 32.73352 | -117.20557 | 27 ft | 0 kts | 358° |
| 2026-05-04 17:35 | 32.73354 | -117.20558 | 27 ft | 0 kts | 358° |
| 2026-05-04 17:35 | 32.73365 | -117.20558 | 26 ft | 3 kts | 358° |
| 2026-05-04 17:36 | 32.73403 | -117.20558 | 29 ft | 7 kts | 360° |
| 2026-05-04 17:36 | 32.73460 | -117.20558 | 26 ft | 9 kts | 5° |
| 2026-05-04 17:36 | 32.73509 | -117.20515 | 22 ft | 10 kts | 49° |
| 2026-05-04 17:36 | 32.73555 | -117.20451 | 22 ft | 10 kts | 49° |
| 2026-05-04 17:37 | 32.73592 | -117.20385 | 24 ft | 8 kts | 81° |
| 2026-05-04 17:37 | 32.73583 | -117.20329 | 28 ft | 7 kts | 105° |
| 2026-05-04 17:37 | 32.73561 | -117.20239 | 28 ft | 13 kts | 106° |
| 2026-05-04 17:37 | 32.73537 | -117.20140 | 28 ft | 12 kts | 106° |
| 2026-05-04 17:38 | 32.73506 | -117.20011 | 28 ft | 17 kts | 106° |
| 2026-05-04 17:38 | 32.73473 | -117.19877 | 30 ft | 16 kts | 106° |
| 2026-05-04 17:38 | 32.73442 | -117.19746 | 30 ft | 17 kts | 106° |
| 2026-05-04 17:38 | 32.73409 | -117.19612 | 30 ft | 17 kts | 106° |
| 2026-05-04 17:39 | 32.73332 | -117.19291 | 27 ft | 22 kts | 106° |
| 2026-05-04 17:39 | 32.73290 | -117.19121 | 28 ft | 21 kts | 106° |
| 2026-05-04 17:39 | 32.73252 | -117.18960 | 29 ft | 20 kts | 105° |
| 2026-05-04 17:40 | 32.73214 | -117.18805 | 31 ft | 19 kts | 106° |
| 2026-05-04 17:40 | 32.73178 | -117.18655 | 31 ft | 19 kts | 106° |
| 2026-05-04 17:40 | 32.73139 | -117.18497 | 28 ft | 21 kts | 106° |
| 2026-05-04 17:40 | 32.73099 | -117.18333 | 28 ft | 21 kts | 106° |
| 2026-05-04 17:41 | 32.73058 | -117.18164 | 27 ft | 22 kts | 106° |
| 2026-05-04 17:41 | 32.73016 | -117.17987 | 26 ft | 22 kts | 105° |
| 2026-05-04 17:41 | 32.72998 | -117.17913 | 28 ft | 7 kts | 105° |
| 2026-05-04 17:41 | 32.72983 | -117.17853 | 26 ft | 8 kts | 107° |
| 2026-05-04 17:42 | 32.72964 | -117.17785 | 24 ft | 9 kts | 109° |
| 2026-05-04 17:42 | 32.72946 | -117.17719 | 25 ft | 7 kts | 98° |
| 2026-05-04 17:42 | 32.72953 | -117.17683 | 24 ft | 0 kts | 73° |
| 2026-05-04 17:44 | 32.72958 | -117.17662 | 29 ft | 7 kts | 73° |
| 2026-05-04 17:44 | 32.72978 | -117.17613 | 26 ft | 6 kts | 46° |
| 2026-05-04 17:44 | 32.73012 | -117.17599 | 27 ft | 5 kts | 353° |
| 2026-05-04 17:44 | 32.73032 | -117.17630 | 26 ft | 6 kts | 292° |
| 2026-05-04 17:45 | 32.73036 | -117.17648 | 26 ft | 0 kts | 285° |
| 2026-05-04 17:45 | 32.73045 | -117.17690 | 25 ft | 28 kts | 285° |
| 2026-05-04 17:45 | 32.73169 | -117.18198 | 27 ft | 98 kts | 286° |
| 2026-05-04 17:45 | 32.73421 | -117.19214 | 35 ft | 154 kts | 289° |
| 2026-05-04 17:46 | 32.73728 | -117.20474 | 510 ft | 159 kts | 286° |
| 2026-05-04 17:46 | 32.74022 | -117.21705 | 1469 ft | 153 kts | 286° |
| 2026-05-04 17:46 | 32.74328 | -117.22973 | 2210 ft | 174 kts | 286° |
| 2026-05-04 17:46 | 32.74701 | -117.24516 | 2548 ft | 213 kts | 286° |
| 2026-05-04 17:47 | 32.75128 | -117.26282 | 3386 ft | 228 kts | 286° |
| 2026-05-04 17:47 | 32.75574 | -117.28108 | 4586 ft | 232 kts | 286° |
| 2026-05-04 17:47 | 32.75868 | -117.29331 | 5311 ft | 233 kts | 286° |
| 2026-05-04 17:47 | 32.76414 | -117.31833 | 6716 ft | 235 kts | 279° |
| 2026-05-04 17:48 | 32.76466 | -117.33113 | 7385 ft | 236 kts | 265° |
| 2026-05-04 17:48 | 32.75716 | -117.35530 | 8766 ft | 236 kts | 234° |
| 2026-05-04 17:48 | 32.74948 | -117.36451 | 9452 ft | 239 kts | 220° |
| 2026-05-04 17:48 | 32.73425 | -117.37275 | 10402 ft | 247 kts | 197° |
| 2026-05-04 17:49 | 32.71673 | -117.37243 | 11267 ft | 261 kts | 172° |
| 2026-05-04 17:49 | 32.70018 | -117.36213 | 12096 ft | 282 kts | 145° |
| 2026-05-04 17:49 | 32.68721 | -117.34395 | 12955 ft | 295 kts | 133° |
| 2026-05-04 17:49 | 32.67641 | -117.32519 | 13721 ft | 301 kts | 131° |
| 2026-05-04 17:50 | 32.66799 | -117.31019 | 14262 ft | 305 kts | 132° |
| 2026-05-04 17:50 | 32.65611 | -117.28916 | 14986 ft | 309 kts | 133° |
| 2026-05-04 17:50 | 32.64394 | -117.26793 | 15718 ft | 313 kts | 133° |
| 2026-05-04 17:50 | 32.63308 | -117.24498 | 16431 ft | 330 kts | 117° |
| 2026-05-04 17:51 | 32.62786 | -117.21783 | 16855 ft | 356 kts | 104° |
| 2026-05-04 17:51 | 32.62496 | -117.18770 | 17133 ft | 379 kts | 101° |
| 2026-05-04 17:51 | 32.62239 | -117.15573 | 17419 ft | 400 kts | 101° |
| 2026-05-04 17:51 | 32.62019 | -117.12219 | 17862 ft | 416 kts | 95° |
| 2026-05-04 17:52 | 32.62426 | -117.08762 | 18467 ft | 431 kts | 75° |
| 2026-05-04 17:52 | 32.63428 | -117.05381 | 19087 ft | 439 kts | 70° |
| 2026-05-04 17:52 | 32.64559 | -117.01988 | 19708 ft | 444 kts | 70° |
| 2026-05-04 17:52 | 32.65698 | -116.98562 | 20298 ft | 449 kts | 72° |
| 2026-05-04 17:53 | 32.66505 | -116.94988 | 20893 ft | 449 kts | 86° |
| 2026-05-04 17:53 | 32.66764 | -116.91309 | 21507 ft | 449 kts | 93° |
| 2026-05-04 17:53 | 32.66866 | -116.87586 | 22128 ft | 452 kts | 94° |
| 2026-05-04 17:53 | 32.66943 | -116.83844 | 22730 ft | 455 kts | 94° |
| 2026-05-04 17:54 | 32.67129 | -116.80070 | 23316 ft | 461 kts | 92° |
| 2026-05-04 17:54 | 32.67352 | -116.76253 | 23824 ft | 466 kts | 92° |
| 2026-05-04 17:54 | 32.67589 | -116.72400 | 24289 ft | 470 kts | 92° |
| 2026-05-04 17:54 | 32.67834 | -116.68506 | 24739 ft | 475 kts | 92° |
| 2026-05-04 17:55 | 32.68084 | -116.64583 | 25198 ft | 478 kts | 92° |
| 2026-05-04 17:55 | 32.68335 | -116.60641 | 25677 ft | 481 kts | 92° |
| 2026-05-04 17:55 | 32.68587 | -116.56664 | 26119 ft | 486 kts | 92° |
| 2026-05-04 17:55 | 32.68843 | -116.52653 | 26570 ft | 488 kts | 92° |
| 2026-05-04 17:56 | 32.69099 | -116.48625 | 26994 ft | 491 kts | 92° |
| 2026-05-04 17:56 | 32.69354 | -116.44568 | 27399 ft | 495 kts | 92° |
| 2026-05-04 17:56 | 32.69610 | -116.40482 | 27812 ft | 498 kts | 92° |
| 2026-05-04 17:56 | 32.69866 | -116.36372 | 28189 ft | 501 kts | 92° |
| 2026-05-04 17:57 | 32.70123 | -116.32232 | 28579 ft | 504 kts | 92° |
| 2026-05-04 17:57 | 32.70379 | -116.28069 | 28936 ft | 507 kts | 92° |
| 2026-05-04 17:57 | 32.70636 | -116.23880 | 29319 ft | 511 kts | 93° |
| 2026-05-04 17:57 | 32.70892 | -116.19642 | 29588 ft | 517 kts | 93° |
| 2026-05-04 17:58 | 32.71151 | -116.15379 | 30003 ft | 519 kts | 93° |
| 2026-05-04 17:58 | 32.71404 | -116.11155 | 30297 ft | 522 kts | 93° |
| 2026-05-04 17:58 | 32.71663 | -116.06831 | 30511 ft | 527 kts | 93° |
| 2026-05-04 17:58 | 32.71923 | -116.02478 | 30746 ft | 530 kts | 93° |
| 2026-05-04 17:59 | 32.72184 | -115.98089 | 30994 ft | 534 kts | 93° |
| 2026-05-04 17:59 | 32.72444 | -115.93680 | 31240 ft | 538 kts | 92° |
| 2026-05-04 17:59 | 32.72966 | -115.84720 | 31639 ft | 547 kts | 92° |
| 2026-05-04 18:00 | 32.73229 | -115.80209 | 32012 ft | 547 kts | 93° |
| 2026-05-04 18:00 | 32.73489 | -115.75701 | 32372 ft | 548 kts | 93° |
| 2026-05-04 18:00 | 32.73748 | -115.71181 | 32704 ft | 549 kts | 93° |
| 2026-05-04 18:00 | 32.74005 | -115.66651 | 32962 ft | 551 kts | 93° |
| 2026-05-04 18:01 | 32.74261 | -115.62112 | 32985 ft | 550 kts | 93° |
| 2026-05-04 18:01 | 32.74769 | -115.53054 | 32981 ft | 549 kts | 93° |
| 2026-05-04 18:02 | 32.75182 | -115.39524 | 32974 ft | 546 kts | 96° |
| 2026-05-04 18:02 | 32.75384 | -115.30506 | 32978 ft | 546 kts | 95° |
| 2026-05-04 18:03 | 32.75586 | -115.21491 | 32993 ft | 546 kts | 95° |
| 2026-05-04 18:03 | 32.75785 | -115.12464 | 32992 ft | 546 kts | 95° |
| 2026-05-04 18:04 | 32.75978 | -115.03443 | 32984 ft | 546 kts | 95° |
| 2026-05-04 18:05 | 32.76256 | -114.89931 | 32986 ft | 545 kts | 95° |
| 2026-05-04 18:05 | 32.76433 | -114.80934 | 32982 ft | 545 kts | 95° |
| 2026-05-04 18:06 | 32.76685 | -114.67448 | 33009 ft | 545 kts | 95° |
| 2026-05-04 18:06 | 32.76842 | -114.58446 | 33010 ft | 544 kts | 95° |
| 2026-05-04 18:07 | 32.76970 | -114.49516 | 32983 ft | 544 kts | 96° |
| 2026-05-04 18:07 | 32.77091 | -114.40525 | 32996 ft | 544 kts | 96° |
| 2026-05-04 18:08 | 32.77149 | -114.36033 | 32894 ft | 544 kts | 95° |
| 2026-05-04 18:08 | 32.77205 | -114.31540 | 32920 ft | 544 kts | 95° |
| 2026-05-04 18:08 | 32.77314 | -114.22547 | 32929 ft | 544 kts | 95° |
| 2026-05-04 18:09 | 32.77749 | -114.04544 | 32935 ft | 550 kts | 88° |
| 2026-05-04 18:10 | 32.78725 | -113.95518 | 32944 ft | 551 kts | 86° |
| 2026-05-04 18:10 | 32.79729 | -113.86530 | 32722 ft | 541 kts | 87° |
| 2026-05-04 18:11 | 32.80214 | -113.82137 | 32472 ft | 532 kts | 87° |
| 2026-05-04 18:11 | 32.80688 | -113.77806 | 32230 ft | 524 kts | 87° |
| 2026-05-04 18:11 | 32.81159 | -113.73512 | 31594 ft | 526 kts | 85° |
| 2026-05-04 18:11 | 32.82051 | -113.69255 | 30809 ft | 536 kts | 69° |
| 2026-05-04 18:12 | 32.83810 | -113.65338 | 30005 ft | 540 kts | 52° |
| 2026-05-04 18:12 | 32.86244 | -113.61972 | 29473 ft | 533 kts | 43° |
| 2026-05-04 18:12 | 32.88776 | -113.58808 | 29117 ft | 525 kts | 43° |
| 2026-05-04 18:12 | 32.91270 | -113.55647 | 28585 ft | 522 kts | 44° |
| 2026-05-04 18:13 | 32.93710 | -113.52480 | 28116 ft | 517 kts | 45° |
| 2026-05-04 18:13 | 32.96115 | -113.49307 | 27570 ft | 515 kts | 46° |
| 2026-05-04 18:13 | 33.00931 | -113.42870 | 25790 ft | 526 kts | 46° |
| 2026-05-04 18:14 | 33.03372 | -113.39582 | 24810 ft | 533 kts | 47° |
| 2026-05-04 18:14 | 33.05808 | -113.36294 | 23865 ft | 538 kts | 47° |
| 2026-05-04 18:14 | 33.08285 | -113.32949 | 22828 ft | 539 kts | 47° |
| 2026-05-04 18:15 | 33.13190 | -113.26313 | 21232 ft | 526 kts | 47° |
| 2026-05-04 18:15 | 33.17950 | -113.19860 | 19983 ft | 506 kts | 46° |
| 2026-05-04 18:15 | 33.20233 | -113.16759 | 19743 ft | 488 kts | 46° |
| 2026-05-04 18:16 | 33.22436 | -113.13765 | 19502 ft | 471 kts | 46° |
| 2026-05-04 18:16 | 33.24546 | -113.10893 | 19231 ft | 450 kts | 46° |
| 2026-05-04 18:16 | 33.26463 | -113.08033 | 18964 ft | 433 kts | 57° |
| 2026-05-04 18:17 | 33.27830 | -113.01392 | 18272 ft | 402 kts | 92° |
| 2026-05-04 18:17 | 33.27846 | -112.98091 | 17929 ft | 395 kts | 93° |
| 2026-05-04 18:17 | 33.27887 | -112.91542 | 17332 ft | 391 kts | 92° |
| 2026-05-04 18:18 | 33.27939 | -112.88305 | 17031 ft | 389 kts | 91° |
| 2026-05-04 18:18 | 33.28001 | -112.85079 | 16733 ft | 386 kts | 91° |
| 2026-05-04 18:18 | 33.28107 | -112.81882 | 16438 ft | 385 kts | 88° |
| 2026-05-04 18:18 | 33.28363 | -112.78707 | 16144 ft | 383 kts | 85° |
| 2026-05-04 18:19 | 33.28963 | -112.72410 | 15557 ft | 379 kts | 85° |
| 2026-05-04 18:19 | 33.29260 | -112.69290 | 15259 ft | 377 kts | 85° |
| 2026-05-04 18:19 | 33.29554 | -112.66184 | 14966 ft | 375 kts | 85° |
| 2026-05-04 18:20 | 33.29843 | -112.63102 | 14711 ft | 370 kts | 85° |
| 2026-05-04 18:20 | 33.30126 | -112.60086 | 14435 ft | 363 kts | 84° |
| 2026-05-04 18:20 | 33.30404 | -112.57099 | 14111 ft | 360 kts | 84° |
| 2026-05-04 18:20 | 33.30677 | -112.54146 | 13813 ft | 356 kts | 84° |
| 2026-05-04 18:21 | 33.30944 | -112.51261 | 13513 ft | 352 kts | 84° |
| 2026-05-04 18:21 | 33.31212 | -112.48362 | 13236 ft | 350 kts | 84° |
| 2026-05-04 18:21 | 33.31478 | -112.45479 | 12964 ft | 348 kts | 84° |
| 2026-05-04 18:21 | 33.31741 | -112.42610 | 12697 ft | 345 kts | 84° |
| 2026-05-04 18:22 | 33.32001 | -112.39767 | 12432 ft | 343 kts | 85° |
| 2026-05-04 18:22 | 33.32260 | -112.36937 | 12165 ft | 343 kts | 85° |
| 2026-05-04 18:22 | 33.32520 | -112.34083 | 11900 ft | 347 kts | 85° |
| 2026-05-04 18:22 | 33.32782 | -112.31219 | 11627 ft | 345 kts | 85° |
| 2026-05-04 18:23 | 33.33042 | -112.28367 | 11353 ft | 344 kts | 85° |
| 2026-05-04 18:23 | 33.33298 | -112.25558 | 11149 ft | 334 kts | 86° |
| 2026-05-04 18:23 | 33.33544 | -112.22866 | 10979 ft | 318 kts | 86° |
| 2026-05-04 18:23 | 33.33778 | -112.20303 | 10784 ft | 303 kts | 86° |
| 2026-05-04 18:24 | 33.33999 | -112.17861 | 10602 ft | 289 kts | 86° |
| 2026-05-04 18:24 | 33.34211 | -112.15517 | 10376 ft | 280 kts | 87° |
| 2026-05-04 18:24 | 33.34416 | -112.13217 | 10025 ft | 278 kts | 88° |
| 2026-05-04 18:24 | 33.34618 | -112.10953 | 9676 ft | 277 kts | 88° |
| 2026-05-04 18:25 | 33.34739 | -112.08649 | 9432 ft | 271 kts | 93° |
| 2026-05-04 18:25 | 33.34741 | -112.06438 | 9158 ft | 268 kts | 95° |
| 2026-05-04 18:25 | 33.34713 | -112.04187 | 8872 ft | 266 kts | 96° |
| 2026-05-04 18:25 | 33.34682 | -112.02019 | 8600 ft | 263 kts | 96° |
| 2026-05-04 18:26 | 33.34652 | -111.99835 | 8330 ft | 262 kts | 96° |
| 2026-05-04 18:26 | 33.34622 | -111.97665 | 8058 ft | 260 kts | 96° |
| 2026-05-04 18:26 | 33.34593 | -111.95530 | 7839 ft | 255 kts | 96° |
| 2026-05-04 18:26 | 33.34589 | -111.93421 | 7591 ft | 253 kts | 94° |
| 2026-05-04 18:27 | 33.34626 | -111.91322 | 7345 ft | 252 kts | 93° |
| 2026-05-04 18:27 | 33.34674 | -111.89231 | 7109 ft | 250 kts | 93° |
| 2026-05-04 18:27 | 33.34725 | -111.87164 | 7000 ft | 247 kts | 94° |
| 2026-05-04 18:27 | 33.34774 | -111.85114 | 6991 ft | 247 kts | 94° |
| 2026-05-04 18:28 | 33.34823 | -111.83059 | 6767 ft | 248 kts | 93° |
| 2026-05-04 18:28 | 33.34872 | -111.81016 | 6537 ft | 244 kts | 94° |
| 2026-05-04 18:28 | 33.34922 | -111.79006 | 6312 ft | 240 kts | 94° |
| 2026-05-04 18:28 | 33.34969 | -111.77024 | 6028 ft | 238 kts | 94° |
| 2026-05-04 18:29 | 33.35013 | -111.75039 | 5752 ft | 238 kts | 94° |
| 2026-05-04 18:29 | 33.35059 | -111.73071 | 5468 ft | 236 kts | 94° |
| 2026-05-04 18:29 | 33.35103 | -111.71109 | 5146 ft | 236 kts | 93° |
| 2026-05-04 18:29 | 33.35148 | -111.69155 | 5019 ft | 234 kts | 94° |
| 2026-05-04 18:30 | 33.35235 | -111.65244 | 5014 ft | 237 kts | 92° |
| 2026-05-04 18:30 | 33.35279 | -111.63274 | 5010 ft | 236 kts | 92° |
| 2026-05-04 18:30 | 33.35324 | -111.61326 | 5009 ft | 234 kts | 94° |
| 2026-05-04 18:31 | 33.35372 | -111.59376 | 5005 ft | 236 kts | 91° |
| 2026-05-04 18:31 | 33.35737 | -111.57449 | 5028 ft | 240 kts | 70° |
| 2026-05-04 18:31 | 33.36729 | -111.55869 | 4943 ft | 235 kts | 38° |
| 2026-05-04 18:31 | 33.38181 | -111.55212 | 4950 ft | 221 kts | 2° |
| 2026-05-04 18:32 | 33.39643 | -111.55584 | 4949 ft | 215 kts | 329° |
| 2026-05-04 18:32 | 33.40764 | -111.56703 | 4995 ft | 208 kts | 302° |
| 2026-05-04 18:32 | 33.41423 | -111.58212 | 5000 ft | 203 kts | 284° |
| 2026-05-04 18:32 | 33.41781 | -111.59836 | 4976 ft | 201 kts | 276° |
| 2026-05-04 18:33 | 33.42013 | -111.61481 | 4980 ft | 200 kts | 273° |
| 2026-05-04 18:33 | 33.42223 | -111.63130 | 4979 ft | 201 kts | 274° |
| 2026-05-04 18:33 | 33.42472 | -111.64753 | 4980 ft | 201 kts | 276° |
| 2026-05-04 18:33 | 33.42744 | -111.66389 | 4976 ft | 198 kts | 271° |
| 2026-05-04 18:34 | 33.42821 | -111.68021 | 4982 ft | 195 kts | 265° |
| 2026-05-04 18:34 | 33.42846 | -111.69650 | 4981 ft | 195 kts | 264° |
| 2026-05-04 18:34 | 33.42839 | -111.71265 | 4996 ft | 194 kts | 263° |
| 2026-05-04 18:34 | 33.42834 | -111.72881 | 5009 ft | 195 kts | 264° |
| 2026-05-04 18:35 | 33.42848 | -111.74489 | 5016 ft | 188 kts | 265° |
| 2026-05-04 18:35 | 33.42873 | -111.75996 | 4888 ft | 173 kts | 266° |
| 2026-05-04 18:35 | 33.42897 | -111.77376 | 4787 ft | 159 kts | 264° |
| 2026-05-04 18:35 | 33.42898 | -111.78652 | 4591 ft | 150 kts | 263° |
| 2026-05-04 18:36 | 33.42889 | -111.79898 | 4396 ft | 149 kts | 263° |
| 2026-05-04 18:36 | 33.42887 | -111.81125 | 4172 ft | 146 kts | 264° |
| 2026-05-04 18:36 | 33.42887 | -111.82337 | 3975 ft | 146 kts | 264° |
| 2026-05-04 18:36 | 33.42887 | -111.83544 | 3806 ft | 141 kts | 264° |
| 2026-05-04 18:37 | 33.42888 | -111.84683 | 3594 ft | 134 kts | 264° |
| 2026-05-04 18:37 | 33.42888 | -111.85795 | 3427 ft | 133 kts | 264° |
| 2026-05-04 18:37 | 33.42887 | -111.86901 | 3266 ft | 133 kts | 265° |
| 2026-05-04 18:37 | 33.42887 | -111.87633 | 3162 ft | 132 kts | 265° |
| 2026-05-04 18:38 | 33.42886 | -111.88735 | 2979 ft | 133 kts | 266° |
| 2026-05-04 18:38 | 33.42886 | -111.89843 | 2812 ft | 132 kts | 265° |
| 2026-05-04 18:38 | 33.42886 | -111.90940 | 2634 ft | 131 kts | 265° |
| 2026-05-04 18:38 | 33.42886 | -111.92030 | 2467 ft | 131 kts | 264° |
| 2026-05-04 18:39 | 33.42887 | -111.93126 | 2317 ft | 132 kts | 264° |
| 2026-05-04 18:39 | 33.42886 | -111.94227 | 2130 ft | 131 kts | 266° |
| 2026-05-04 18:39 | 33.42886 | -111.95310 | 1962 ft | 130 kts | 267° |
| 2026-05-04 18:39 | 33.42887 | -111.96395 | 1786 ft | 131 kts | 271° |
| 2026-05-04 18:40 | 33.42875 | -111.97469 | 1574 ft | 128 kts | 272° |
| 2026-05-04 18:40 | 33.42873 | -111.98525 | 1411 ft | 126 kts | 274° |
| 2026-05-04 18:40 | 33.42875 | -111.99551 | 1265 ft | 122 kts | 276° |
| 2026-05-04 18:40 | 33.42896 | -112.00567 | 1146 ft | 122 kts | 275° |
| 2026-05-04 18:41 | 33.42893 | -112.01389 | 1136 ft | 61 kts | 270° |
| 2026-05-04 18:41 | 33.42928 | -112.01652 | 1135 ft | 21 kts | 339° |
| 2026-05-04 18:41 | 33.42979 | -112.01672 | 1133 ft | 0 kts | 312° |
| 2026-05-04 18:43 | 33.42993 | -112.01708 | 1137 ft | 8 kts | 279° |
| 2026-05-04 18:43 | 33.42996 | -112.01773 | 1132 ft | 8 kts | 270° |
| 2026-05-04 18:43 | 33.42996 | -112.01878 | 1135 ft | 18 kts | 270° |
| 2026-05-04 18:43 | 33.42996 | -112.02061 | 1134 ft | 25 kts | 271° |
| 2026-05-04 18:44 | 33.42996 | -112.02271 | 1134 ft | 26 kts | 270° |
| 2026-05-04 18:44 | 33.42996 | -112.02417 | 1133 ft | 26 kts | 270° |
| 2026-05-04 18:44 | 33.43056 | -112.02541 | 1132 ft | 12 kts | 344° |
| 2026-05-04 18:44 | 33.43163 | -112.02543 | 1133 ft | 15 kts | 14° |
| 2026-05-04 18:45 | 33.43214 | -112.02471 | 1134 ft | 10 kts | 85° |
| 2026-05-04 18:45 | 33.43216 | -112.02363 | 1136 ft | 17 kts | 89° |
| 2026-05-04 18:45 | 33.43216 | -112.02205 | 1135 ft | 21 kts | 90° |
| 2026-05-04 18:45 | 33.43216 | -112.02030 | 1135 ft | 21 kts | 90° |
| 2026-05-04 18:46 | 33.43219 | -112.01855 | 1135 ft | 21 kts | 71° |
| 2026-05-04 18:46 | 33.43288 | -112.01744 | 1137 ft | 15 kts | 88° |
| 2026-05-04 18:46 | 33.43288 | -112.01572 | 1137 ft | 24 kts | 90° |
| 2026-05-04 18:46 | 33.43288 | -112.01364 | 1133 ft | 27 kts | 90° |
| 2026-05-04 18:47 | 33.43289 | -112.01142 | 1136 ft | 27 kts | 90° |
| 2026-05-04 18:47 | 33.43288 | -112.00922 | 1137 ft | 26 kts | 90° |
| 2026-05-04 18:47 | 33.43288 | -112.00704 | 1134 ft | 24 kts | 90° |
| 2026-05-04 18:47 | 33.43288 | -112.00586 | 1138 ft | 8 kts | 90° |
| 2026-05-04 18:48 | 33.43288 | -112.00517 | 1138 ft | 8 kts | 88° |
| 2026-05-04 18:48 | 33.43319 | -112.00472 | 1135 ft | 7 kts | 16° |
| 2026-05-04 18:48 | 33.43421 | -112.00469 | 1137 ft | 19 kts | 359° |
| 2026-05-04 18:48 | 33.43557 | -112.00469 | 1136 ft | 20 kts | 0° |
| 2026-05-04 18:49 | 33.43698 | -112.00469 | 1135 ft | 20 kts | 360° |
| 2026-05-04 18:49 | 33.43838 | -112.00469 | 1136 ft | 15 kts | 360° |
| 2026-05-04 18:49 | 33.43904 | -112.00417 | 1134 ft | 11 kts | 85° |
| 2026-05-04 18:49 | 33.43905 | -112.00317 | 1134 ft | 14 kts | 90° |
| 2026-05-04 18:50 | 33.43904 | -112.00162 | 1134 ft | 20 kts | 90° |
| 2026-05-04 18:50 | 33.43904 | -111.99999 | 1134 ft | 20 kts | 91° |
| 2026-05-04 18:50 | 33.43897 | -111.99847 | 1134 ft | 11 kts | 126° |
| 2026-05-04 18:50 | 33.43842 | -111.99830 | 1137 ft | 8 kts | 178° |
| 2026-05-04 18:51 | 33.43818 | -111.99829 | 1136 ft | 5 kts | 181° |
| 2026-05-04 18:51 | 33.43797 | -111.99846 | 1136 ft | 3 kts | 240° |
| 2026-05-04 18:51 | 33.43793 | -111.99863 | 1134 ft | 2 kts | 258° |
| 2026-05-04 18:51 | 33.43791 | -111.99879 | 1139 ft | 0 kts | 259° |
| 2026-05-04 18:52 | 33.43790 | -111.99883 | 1138 ft | 0 kts | 260° |